Time;durP1;ratioP1;P1;durP2;ratioP2;P2;SDS_P1;SDS_P2;PMS_P1;PMS_P2;Temp;Humidity;BMP_temperature;BMP_pressure;BME280_temperature;BME280_humidity;BME280_pressure;Samples;Min_cycle;Max_cycle;Signal;HPM_P1;HPM_P2
2022/01/10 00:02:27;;;;;;;;;;;;;;;22.05;30.16;96659.56;5057374;28;939;-76
2022/01/10 00:04:52;;;;;;;;;;;;;;;22.10;29.86;96655.31;5035855;28;993;-76
2022/01/10 00:07:18;;;;;;;;;;;;;;;21.97;30.11;96651.94;5020204;28;1599;-76
2022/01/10 00:09:43;;;;;;;;;;;;;;;21.89;30.18;96653.53;5019373;28;1010;-76
2022/01/10 00:12:09;;;;;;;;;;;;;;;22.20;29.42;96650.41;5036595;28;893;-75
2022/01/10 00:14:34;;;;;;;;;;;;;;;22.16;29.48;96647.75;5035435;28;1984;-76
2022/01/10 00:17:00;;;;;;;;;;;;;;;22.26;29.81;96645.63;4997012;28;963;-76
2022/01/10 00:19:26;;;;;;;;;;;;;;;21.33;31.31;96648.06;4996133;28;974;-76
2022/01/10 00:21:51;;;;;;;;;;;;;;;22.04;29.73;96649.50;4997426;28;929;-76
2022/01/10 00:24:17;;;;;;;;;;;;;;;22.25;29.35;96639.19;4996074;28;1210;-75
2022/01/10 00:26:42;;;;;;;;;;;;;;;22.27;29.19;96644.34;4996967;28;1002;-75
2022/01/10 00:29:08;;;;;;;;;;;;;;;22.28;29.41;96643.91;4996407;28;1039;-76
2022/01/10 00:31:33;;;;;;;;;;;;;;;22.83;29.54;96640.63;5011626;28;946;-76
2022/01/10 00:33:59;;;;;;;;;;;;;;;23.08;29.37;96638.53;5015361;28;913;-75
2022/01/10 00:36:27;;;;;;;;;;;;;;;23.04;29.71;96635.09;5011228;28;1973;-76
2022/01/10 00:38:52;;;;;;;;;;;;;;;22.47;30.01;96646.59;5015527;28;1063;-76
2022/01/10 00:41:18;;;;;;;;;;;;;;;22.29;30.14;96642.63;5015980;28;1235;-76
2022/01/10 00:43:46;;;;;;;;;;;;;;;22.31;30.09;96637.25;5014979;28;1134;-75
2022/01/10 00:46:12;;;;;;;;;;;;;;;22.20;30.34;96645.50;5017070;28;994;-76
2022/01/10 00:48:37;;;;;;;;;;;;;;;22.18;30.64;96641.59;5029839;28;950;-75
2022/01/10 00:51:03;;;;;;;;;;;;;;;22.42;30.07;96638.75;5036264;28;1055;-76
2022/01/10 00:53:29;;;;;;;;;;;;;;;22.29;30.15;96641.84;5034934;28;1040;-76
2022/01/10 00:55:57;;;;;;;;;;;;;;;22.27;30.00;96645.13;5036486;28;1918;-75
2022/01/10 00:58:22;;;;;;;;;;;;;;;22.15;30.28;96643.34;5034906;28;927;-75
2022/01/10 01:00:48;;;;;;;;;;;;;;;22.18;30.14;96645.22;5036674;28;1013;-76
2022/01/10 01:03:13;;;;;;;;;;;;;;;21.84;31.24;96647.25;5054481;28;1246;-76
2022/01/10 01:05:41;;;;;;;;;;;;;;;21.96;30.54;96642.63;5055700;28;966;-75
2022/01/10 01:08:09;;;;;;;;;;;;;;;22.13;29.99;96645.09;5086996;28;1029;-76
2022/01/10 01:13:20;;;;;;;;;;;;;;;22.14;30.16;96641.78;5094847;28;1052;-76
2022/01/10 01:15:58;;;;;;;;;;;;;;;22.23;30.05;96638.13;5095626;28;2358;-75
2022/01/10 01:19:08;;;;;;;;;;;;;;;22.08;30.61;96638.00;5053873;28;1013;-76
2022/01/10 01:24:06;;;;;;;;;;;;;;;22.81;30.50;96620.47;5054445;28;1240;-76
2022/01/10 01:26:32;;;;;;;;;;;;;;;22.58;30.09;96618.47;5035336;28;962;-75
2022/01/10 01:28:58;;;;;;;;;;;;;;;22.38;30.38;96623.97;5034212;28;1152;-76
2022/01/10 01:31:26;;;;;;;;;;;;;;;22.36;29.99;96619.59;5022108;28;937;-75
2022/01/10 01:33:51;;;;;;;;;;;;;;;22.32;29.95;96623.88;5001049;28;1092;-76
2022/01/10 01:36:21;;;;;;;;;;;;;;;22.36;30.30;96613.91;4976786;28;1985;-76
2022/01/10 01:38:47;;;;;;;;;;;;;;;22.54;29.90;96606.56;4975120;28;953;-75
2022/01/10 01:41:35;;;;;;;;;;;;;;;22.36;30.23;96607.47;4990669;28;1163;-75
2022/01/10 01:43:58;;;;;;;;;;;;;;;22.40;30.20;96601.63;5014721;28;1051;-76
2022/01/10 01:46:24;;;;;;;;;;;;;;;22.24;30.52;96606.47;5000016;28;1241;-75
2022/01/10 01:48:50;;;;;;;;;;;;;;;22.16;30.75;96593.91;5024965;28;1018;-76
2022/01/10 01:51:19;;;;;;;;;;;;;;;22.12;30.73;96596.13;5055773;28;1216;-76
2022/01/10 01:53:45;;;;;;;;;;;;;;;22.21;30.72;96601.75;5056554;28;1182;-75
2022/01/10 01:56:11;;;;;;;;;;;;;;;22.19;30.74;96604.28;5039439;28;1978;-75
2022/01/10 01:58:40;;;;;;;;;;;;;;;22.23;30.30;96599.22;5017668;28;1067;-75
2022/01/10 02:01:05;;;;;;;;;;;;;;;21.96;30.90;96597.31;5019804;28;1008;-75
2022/01/10 02:03:33;;;;;;;;;;;;;;;22.04;30.58;96600.59;4942902;29;1482;-75
2022/01/10 02:06:01;;;;;;;;;;;;;;;22.19;30.50;96609.94;4907317;29;1528;-76
2022/01/10 02:08:28;;;;;;;;;;;;;;;22.08;30.70;96604.81;4920811;29;1028;-76
2022/01/10 02:10:56;;;;;;;;;;;;;;;21.48;31.84;96610.63;4907369;29;1233;-76
2022/01/10 02:13:22;;;;;;;;;;;;;;;21.45;32.06;96608.72;4921229;29;944;-76
2022/01/10 02:16:04;;;;;;;;;;;;;;;22.09;30.77;96617.69;4906944;29;1911;-75
2022/01/10 02:18:34;;;;;;;;;;;;;;;22.14;30.15;96607.78;4901746;29;1165;-76
2022/01/10 02:21:03;;;;;;;;;;;;;;;22.23;29.97;96616.22;4888372;29;1126;-75
2022/01/10 02:23:31;;;;;;;;;;;;;;;22.48;30.60;96608.47;4886422;29;1223;-75
2022/01/10 02:26:06;;;;;;;;;;;;;;;23.03;29.98;96616.53;4865695;29;1607;-76
2022/01/10 02:28:34;;;;;;;;;;;;;;;22.54;30.37;96617.88;4878673;29;1725;-76
2022/01/10 02:31:00;;;;;;;;;;;;;;;22.22;30.79;96613.84;4867285;29;1243;-75
2022/01/10 02:33:28;;;;;;;;;;;;;;;22.17;30.83;96618.13;4900405;28;1307;-76
2022/01/10 02:36:16;;;;;;;;;;;;;;;22.05;30.73;96611.41;4906707;29;1911;-76
2022/01/10 02:38:45;;;;;;;;;;;;;;;22.19;30.44;96615.63;4958982;29;966;-76
2022/01/10 02:41:18;;;;;;;;;;;;;;;22.12;30.76;96618.00;4922411;29;1255;-75
2022/01/10 02:43:43;;;;;;;;;;;;;;;22.29;30.40;96619.97;4920832;29;1054;-75
2022/01/10 02:46:09;;;;;;;;;;;;;;;22.17;30.57;96618.13;4903321;29;1499;-76
2022/01/10 02:48:34;;;;;;;;;;;;;;;22.30;30.30;96615.06;4901465;29;1032;-75
2022/01/10 02:51:00;;;;;;;;;;;;;;;22.05;30.65;96616.31;4884265;29;1024;-75
2022/01/10 02:53:25;;;;;;;;;;;;;;;22.12;30.42;96618.78;4882556;29;1719;-76
2022/01/10 02:55:51;;;;;;;;;;;;;;;22.11;30.87;96617.22;4884001;29;1985;-76
2022/01/10 02:58:16;;;;;;;;;;;;;;;21.90;31.20;96621.13;4901538;29;1490;-76
2022/01/10 03:00:42;;;;;;;;;;;;;;;22.18;30.16;96628.22;4902448;29;1103;-76
2022/01/10 03:03:07;;;;;;;;;;;;;;;22.10;30.56;96624.13;4899455;29;1150;-75
2022/01/10 03:05:34;;;;;;;;;;;;;;;22.06;30.35;96624.31;4883774;29;1179;-75
2022/01/10 03:08:02;;;;;;;;;;;;;;;21.47;31.57;96629.66;4883252;29;1013;-76
2022/01/10 03:10:28;;;;;;;;;;;;;;;21.85;30.83;96631.03;4883649;29;1154;-76
2022/01/10 03:12:54;;;;;;;;;;;;;;;22.09;30.07;96629.03;4916881;29;1268;-75
2022/01/10 03:15:22;;;;;;;;;;;;;;;22.26;30.21;96632.25;4958885;28;1910;-76
2022/01/10 03:17:48;;;;;;;;;;;;;;;21.81;30.75;96634.06;4975293;28;1274;-76
2022/01/10 03:20:14;;;;;;;;;;;;;;;22.03;30.26;96635.84;4977907;28;1230;-75
2022/01/10 03:22:39;;;;;;;;;;;;;;;22.26;29.82;96643.59;4993758;28;986;-75
2022/01/10 03:25:05;;;;;;;;;;;;;;;22.16;29.87;96644.91;4958322;29;1411;-76
2022/01/10 03:27:33;;;;;;;;;;;;;;;21.96;30.53;96636.97;4959506;29;1545;-76
2022/01/10 03:29:59;;;;;;;;;;;;;;;22.09;30.01;96648.06;4943155;28;1252;-76
2022/01/10 03:32:25;;;;;;;;;;;;;;;22.10;29.73;96647.63;4930104;29;1132;-76
2022/01/10 03:34:57;;;;;;;;;;;;;;;22.13;29.60;96650.78;4957574;29;1984;-76
2022/01/10 03:37:24;;;;;;;;;;;;;;;21.95;30.75;96652.38;4978041;28;1274;-76
2022/01/10 03:39:50;;;;;;;;;;;;;;;22.71;30.12;96661.53;4993187;28;1074;-75
2022/01/10 03:42:16;;;;;;;;;;;;;;;22.92;30.06;96665.31;4977833;28;1175;-76
2022/01/10 03:44:41;;;;;;;;;;;;;;;22.47;30.17;96652.25;4938948;29;1144;-75
2022/01/10 03:47:10;;;;;;;;;;;;;;;22.23;30.16;96655.91;4923944;29;1461;-76
2022/01/10 03:49:36;;;;;;;;;;;;;;;22.22;29.90;96642.19;4920007;29;948;-76
2022/01/10 03:52:01;;;;;;;;;;;;;;;22.18;30.19;96642.38;4958689;29;1188;-75
2022/01/10 03:54:27;;;;;;;;;;;;;;;22.20;30.23;96651.19;4977130;28;1383;-76
2022/01/10 03:56:54;;;;;;;;;;;;;;;22.24;30.57;96640.47;4977778;28;2082;-75
2022/01/10 03:59:20;;;;;;;;;;;;;;;22.10;30.54;96646.81;4976842;28;1240;-76
2022/01/10 04:01:46;;;;;;;;;;;;;;;22.25;30.58;96647.69;4958561;29;1132;-76
2022/01/10 04:04:14;;;;;;;;;;;;;;;22.30;30.22;96649.06;4911363;29;1053;-75
2022/01/10 04:06:41;;;;;;;;;;;;;;;22.18;30.17;96650.88;4933160;29;1132;-76
2022/01/10 04:09:07;;;;;;;;;;;;;;;22.18;30.23;96642.38;4890187;29;1136;-76
2022/01/10 04:11:33;;;;;;;;;;;;;;;22.25;30.22;96647.69;4898042;29;1325;-76
2022/01/10 04:13:58;;;;;;;;;;;;;;;22.11;30.68;96645.56;4918131;29;1609;-76
2022/01/10 04:16:24;;;;;;;;;;;;;;;22.33;29.91;96654.56;4923743;29;1911;-76
2022/01/10 04:18:50;;;;;;;;;;;;;;;22.22;30.04;96648.63;4935108;28;1100;-76
2022/01/10 04:21:16;;;;;;;;;;;;;;;22.02;30.54;96665.41;4959190;29;1907;-76
2022/01/10 04:23:44;;;;;;;;;;;;;;;22.21;30.47;96669.75;5001598;28;1453;-76
2022/01/10 04:26:09;;;;;;;;;;;;;;;22.22;30.22;96676.19;5033456;28;1206;-76
2022/01/10 04:28:36;;;;;;;;;;;;;;;22.27;30.04;96679.16;5035135;28;1921;-76
2022/01/10 04:31:04;;;;;;;;;;;;;;;22.09;30.24;96679.22;5053492;28;869;-76
2022/01/10 04:33:30;;;;;;;;;;;;;;;21.96;30.99;96678.66;5003213;28;1170;-77
2022/01/10 04:35:57;;;;;;;;;;;;;;;21.54;31.51;96679.47;4982973;28;1918;-77
2022/01/10 04:38:22;;;;;;;;;;;;;;;22.07;30.37;96670.41;4968961;28;1223;-77
2022/01/10 04:40:51;;;;;;;;;;;;;;;22.17;30.25;96682.50;4987286;28;1261;-77
2022/01/10 04:43:17;;;;;;;;;;;;;;;22.05;30.38;96678.63;4984191;28;1259;-77
2022/01/10 04:45:42;;;;;;;;;;;;;;;22.15;30.32;96680.16;4986247;28;1254;-77
2022/01/10 04:48:09;;;;;;;;;;;;;;;22.08;30.45;96683.34;4969571;28;1274;-77
2022/01/10 04:51:11;;;;;;;;;;;;;;;22.11;30.26;96679.56;4971606;28;1281;-77
2022/01/10 04:53:37;;;;;;;;;;;;;;;21.94;30.50;96689.69;4952364;28;2373;-77
2022/01/10 04:56:02;;;;;;;;;;;;;;;21.78;31.11;96694.47;4970580;28;1895;-76
2022/01/10 04:58:28;;;;;;;;;;;;;;;21.75;31.03;96691.81;4969299;28;2062;-77
2022/01/10 05:00:55;;;;;;;;;;;;;;;21.80;30.70;96694.78;4971906;28;1062;-77
2022/01/10 05:03:23;;;;;;;;;;;;;;;22.20;30.25;96695.72;4976112;28;1077;-76
2022/01/10 05:05:53;;;;;;;;;;;;;;;21.98;30.15;96693.16;4998062;28;1127;-77
2022/01/10 05:08:22;;;;;;;;;;;;;;;22.25;29.65;96701.53;4956553;29;1697;-77
2022/01/10 05:10:48;;;;;;;;;;;;;;;21.76;30.94;96693.38;4949707;28;1072;-77
2022/01/10 05:13:14;;;;;;;;;;;;;;;21.76;30.56;96690.53;4957643;28;1172;-77
2022/01/10 05:15:41;;;;;;;;;;;;;;;22.15;29.79;96705.66;4996141;28;1923;-77
2022/01/10 05:18:09;;;;;;;;;;;;;;;22.08;29.64;96711.66;4995382;28;995;-77
2022/01/10 05:20:35;;;;;;;;;;;;;;;22.21;30.89;96709.41;4979761;28;1158;-77
2022/01/10 05:23:01;;;;;;;;;;;;;;;23.03;30.00;96712.97;4975629;28;1128;-77
2022/01/10 05:25:27;;;;;;;;;;;;;;;22.62;30.10;96712.63;4976269;28;868;-77
2022/01/10 05:27:55;;;;;;;;;;;;;;;22.42;29.81;96713.22;4956336;28;1084;-77
2022/01/10 05:30:21;;;;;;;;;;;;;;;22.40;29.63;96714.97;5006535;28;1115;-78
2022/01/10 05:32:47;;;;;;;;;;;;;;;22.27;30.22;96732.19;4977141;28;1087;-74
2022/01/10 05:35:48;;;;;;;;;;;;;;;21.71;31.07;96723.13;4956724;29;1911;-74
2022/01/10 05:38:13;;;;;;;;;;;;;;;21.39;31.93;96729.47;4954836;29;1249;-74
2022/01/10 05:40:39;;;;;;;;;;;;;;;22.22;30.15;96725.13;4976157;28;1434;-75
2022/01/10 05:43:06;;;;;;;;;;;;;;;22.25;30.10;96720.56;4991194;28;1424;-75
2022/01/10 05:45:32;;;;;;;;;;;;;;;22.18;30.21;96733.06;4991993;28;1377;-74
2022/01/10 05:48:06;;;;;;;;;;;;;;;21.96;30.56;96723.97;4959697;28;1148;-74
2022/01/10 05:50:34;;;;;;;;;;;;;;;21.63;31.65;96727.56;4975176;28;1131;-75
2022/01/10 05:53:03;;;;;;;;;;;;;;;22.18;30.44;96738.72;4934490;29;1226;-74
2022/01/10 05:55:29;;;;;;;;;;;;;;;22.34;30.46;96740.38;4973217;28;1958;-75
2022/01/10 05:57:55;;;;;;;;;;;;;;;22.36;30.32;96740.66;4956422;29;1216;-75
2022/01/10 06:00:21;;;;;;;;;;;;;;;21.94;31.15;96735.00;4944118;28;1140;-75
2022/01/10 06:02:46;;;;;;;;;;;;;;;22.21;30.51;96743.41;4978882;28;1016;-75
2022/01/10 06:05:24;;;;;;;;;;;;;;;22.17;30.47;96742.78;4995468;28;1358;-75
2022/01/10 06:07:51;;;;;;;;;;;;;;;22.26;30.49;96739.91;4995316;28;1120;-74
2022/01/10 06:10:16;;;;;;;;;;;;;;;22.32;30.12;96749.31;4995339;28;1101;-75
2022/01/10 06:12:42;;;;;;;;;;;;;;;21.55;32.12;96746.13;4980768;28;1306;-75
2022/01/10 06:15:07;;;;;;;;;;;;;;;22.17;30.62;96754.13;4997687;28;1989;-75
2022/01/10 06:17:38;;;;;;;;;;;;;;;22.32;30.12;96748.53;4960082;28;1292;-74
2022/01/10 06:20:04;;;;;;;;;;;;;;;22.14;30.50;96755.09;4975227;28;1178;-74
2022/01/10 06:22:29;;;;;;;;;;;;;;;21.84;31.33;96754.84;4976197;28;1548;-74
2022/01/10 06:24:55;;;;;;;;;;;;;;;22.33;30.27;96762.25;4974552;28;1482;-75
2022/01/10 06:27:22;;;;;;;;;;;;;;;22.30;30.05;96757.53;4995566;28;1282;-75
2022/01/10 06:29:48;;;;;;;;;;;;;;;22.17;30.11;96765.47;4980027;28;1071;-74
2022/01/10 06:32:13;;;;;;;;;;;;;;;22.22;30.52;96761.97;4976352;28;814;-74
2022/01/10 06:34:39;;;;;;;;;;;;;;;21.90;31.24;96762.72;4990724;28;1951;-75
2022/01/10 06:37:05;;;;;;;;;;;;;;;22.31;30.13;96767.59;4991225;28;965;-75
2022/01/10 06:39:36;;;;;;;;;;;;;;;21.95;30.82;96750.72;5012337;28;1138;-75
2022/01/10 06:42:02;;;;;;;;;;;;;;;22.32;30.21;96763.50;5035191;28;1142;-75
2022/01/10 06:44:28;;;;;;;;;;;;;;;22.28;30.47;96765.75;5017635;28;1220;-75
2022/01/10 06:46:53;;;;;;;;;;;;;;;22.26;30.64;96773.91;5058166;28;1205;-75
2022/01/10 06:49:19;;;;;;;;;;;;;;;22.21;30.30;96766.06;5024580;28;1160;-75
2022/01/10 06:51:44;;;;;;;;;;;;;;;22.17;30.35;96759.00;4983435;28;1010;-74
2022/01/10 06:54:10;;;;;;;;;;;;;;;22.25;30.00;96769.53;4994266;28;1148;-75
2022/01/10 06:56:36;;;;;;;;;;;;;;;22.18;30.33;96767.03;4996219;28;1987;-75
2022/01/10 06:59:02;;;;;;;;;;;;;;;22.25;30.31;96772.34;4985625;28;1155;-75
2022/01/10 07:01:36;;;;;;;;;;;;;;;22.23;30.24;96779.78;4960035;28;1388;-75
2022/01/10 07:04:01;;;;;;;;;;;;;;;22.07;30.49;96763.88;4943152;28;1313;-75
2022/01/10 07:06:27;;;;;;;;;;;;;;;22.26;30.14;96773.91;4959545;28;1234;-75
2022/01/10 07:08:55;;;;;;;;;;;;;;;22.29;30.15;96767.31;4996745;28;1298;-75
2022/01/10 07:11:30;;;;;;;;;;;;;;;22.29;29.88;96781.47;4983568;28;1184;-74
2022/01/10 07:13:56;;;;;;;;;;;;;;;21.85;30.93;96772.63;4997853;28;1300;-75
2022/01/10 07:16:21;;;;;;;;;;;;;;;21.79;31.30;96769.66;5001477;28;1918;-74
2022/01/10 07:18:52;;;;;;;;;;;;;;;22.21;30.03;96770.97;5017447;28;1210;-74
2022/01/10 07:21:27;;;;;;;;;;;;;;;22.18;30.08;96772.72;5021225;28;1507;-74
2022/01/10 07:23:53;;;;;;;;;;;;;;;21.94;30.97;96769.78;4949208;28;1249;-74
2022/01/10 07:26:19;;;;;;;;;;;;;;;22.12;30.55;96776.66;4956921;29;966;-75
2022/01/10 07:28:44;;;;;;;;;;;;;;;22.32;30.06;96766.31;4993121;28;928;-75
2022/01/10 07:31:09;;;;;;;;;;;;;;;22.35;29.99;96776.72;4995347;28;889;-75
2022/01/10 07:33:36;;;;;;;;;;;;;;;22.23;30.38;96774.91;4976885;28;991;-75
2022/01/10 07:36:01;;;;;;;;;;;;;;;22.36;29.70;96781.13;4979995;28;1918;-75
2022/01/10 07:38:27;;;;;;;;;;;;;;;22.31;29.75;96767.59;4958150;29;1453;-75
2022/01/10 07:40:55;;;;;;;;;;;;;;;21.56;31.48;96773.19;4959148;29;1147;-74
2022/01/10 07:43:20;;;;;;;;;;;;;;;22.21;30.33;96766.06;4941644;29;1143;-75
2022/01/10 07:45:49;;;;;;;;;;;;;;;22.13;29.93;96776.19;4970758;28;1140;-75
2022/01/10 07:48:17;;;;;;;;;;;;;;;22.00;30.20;96775.56;4976902;28;1182;-75
2022/01/10 07:50:43;;;;;;;;;;;;;;;21.66;30.94;96771.91;4997493;28;961;-74
2022/01/10 07:53:08;;;;;;;;;;;;;;;22.01;30.67;96771.47;4996283;28;1040;-74
2022/01/10 07:55:34;;;;;;;;;;;;;;;22.32;30.02;96777.66;5028161;28;1910;-75
2022/01/10 07:57:59;;;;;;;;;;;;;;;22.06;30.23;96779.31;5036006;28;946;-74
2022/01/10 08:00:24;;;;;;;;;;;;;;;21.80;30.75;96782.53;5020968;28;910;-75
2022/01/10 08:02:50;;;;;;;;;;;;;;;22.23;29.86;96788.28;5016252;28;923;-74
2022/01/10 08:05:16;;;;;;;;;;;;;;;22.13;29.83;96784.69;5016167;28;963;-75
2022/01/10 08:07:41;;;;;;;;;;;;;;;22.18;30.26;96784.06;5055616;28;1037;-74
2022/01/10 08:10:07;;;;;;;;;;;;;;;22.15;30.07;96789.88;5054724;28;877;-74
2022/01/10 08:12:33;;;;;;;;;;;;;;;22.50;29.19;96793.81;5076924;28;933;-75
2022/01/10 08:14:58;;;;;;;;;;;;;;;21.57;30.90;96794.56;5059287;28;1982;-75
2022/01/10 08:17:24;;;;;;;;;;;;;;;22.15;30.09;96793.50;5076458;28;875;-74
2022/01/10 08:19:49;;;;;;;;;;;;;;;22.31;29.62;96787.44;5042384;28;978;-74
2022/01/10 08:22:14;;;;;;;;;;;;;;;22.22;29.83;96778.97;5050895;28;993;-75
2022/01/10 08:24:40;;;;;;;;;;;;;;;22.08;30.24;96780.44;5055316;28;996;-75
2022/01/10 08:27:05;;;;;;;;;;;;;;;22.16;29.91;96789.38;5056281;28;925;-74
2022/01/10 08:29:31;;;;;;;;;;;;;;;22.28;29.63;96788.41;5055309;28;959;-75
2022/01/10 08:31:56;;;;;;;;;;;;;;;22.14;29.93;96796.81;5056160;28;789;-75
2022/01/10 08:34:24;;;;;;;;;;;;;;;22.21;29.97;96794.41;5055290;28;939;-74
2022/01/10 08:36:49;;;;;;;;;;;;;;;22.32;29.68;96797.50;5056340;28;1909;-75
2022/01/10 08:39:15;;;;;;;;;;;;;;;22.38;29.49;96791.97;5026299;28;1007;-75
2022/01/10 08:41:41;;;;;;;;;;;;;;;22.29;29.77;96806.97;5016234;28;1277;-74
2022/01/10 08:44:06;;;;;;;;;;;;;;;22.22;29.76;96807.31;5015086;28;771;-75
2022/01/10 08:46:33;;;;;;;;;;;;;;;21.97;30.61;96802.03;5016568;28;974;-75
2022/01/10 08:48:58;;;;;;;;;;;;;;;22.32;29.73;96800.34;5014924;28;968;-75
2022/01/10 08:51:24;;;;;;;;;;;;;;;22.22;29.95;96801.63;5032050;28;1106;-75
2022/01/10 08:53:50;;;;;;;;;;;;;;;22.18;30.01;96795.38;5018563;28;1154;-75
2022/01/10 08:56:15;;;;;;;;;;;;;;;22.03;30.50;96798.06;5036041;28;1975;-75
2022/01/10 08:58:41;;;;;;;;;;;;;;;21.96;30.35;96787.06;5034389;28;913;-74
2022/01/10 09:01:06;;;;;;;;;;;;;;;22.21;29.75;96788.75;5019621;28;1050;-74
2022/01/10 09:03:32;;;;;;;;;;;;;;;22.41;29.67;96791.03;5034201;28;758;-75
2022/01/10 09:05:58;;;;;;;;;;;;;;;21.59;30.96;96795.66;5033727;28;907;-75
2022/01/10 09:08:25;;;;;;;;;;;;;;;22.49;29.33;96797.13;5034709;28;809;-74
2022/01/10 09:10:51;;;;;;;;;;;;;;;22.21;29.88;96796.47;5022564;28;1105;-74
2022/01/10 09:13:16;;;;;;;;;;;;;;;22.08;30.27;96794.59;5058132;28;831;-75
2022/01/10 09:15:42;;;;;;;;;;;;;;;22.40;29.51;96788.66;5058613;28;1906;-75
2022/01/10 09:18:07;;;;;;;;;;;;;;;22.09;30.48;96781.22;5057139;28;802;-75
2022/01/10 09:20:33;;;;;;;;;;;;;;;22.31;29.76;96770.44;5058126;28;790;-75
2022/01/10 09:22:58;;;;;;;;;;;;;;;22.28;29.94;96765.75;5057527;28;727;-75
2022/01/10 09:25:24;;;;;;;;;;;;;;;21.87;30.87;96764.47;5057303;28;806;-75
2022/01/10 09:27:49;;;;;;;;;;;;;;;22.20;29.85;96758.84;5089119;28;936;-75
2022/01/10 09:30:15;;;;;;;;;;;;;;;22.29;29.69;96767.31;5057089;28;865;-75
2022/01/10 09:32:40;;;;;;;;;;;;;;;22.07;30.57;96763.88;5057870;28;918;-75
2022/01/10 09:35:06;;;;;;;;;;;;;;;21.97;30.42;96751.84;5057179;28;1922;-74
2022/01/10 09:37:32;;;;;;;;;;;;;;;21.94;30.67;96757.66;5058765;28;859;-75
2022/01/10 09:39:57;;;;;;;;;;;;;;;22.41;29.84;96767.56;5056821;28;1110;-75
2022/01/10 09:42:23;;;;;;;;;;;;;;;22.22;30.27;96772.53;5057318;28;695;-75
2022/01/10 09:44:48;;;;;;;;;;;;;;;22.41;30.06;96767.56;5056121;28;779;-74
2022/01/10 09:47:14;;;;;;;;;;;;;;;21.81;30.93;96764.31;5058070;28;691;-74
2022/01/10 09:49:39;;;;;;;;;;;;;;;22.29;29.85;96772.97;5088645;28;781;-75
2022/01/10 09:52:05;;;;;;;;;;;;;;;22.24;29.76;96776.47;5057931;28;875;-74
2022/01/10 09:54:30;;;;;;;;;;;;;;;22.17;30.20;96779.63;5056457;28;842;-74
2022/01/10 09:56:56;;;;;;;;;;;;;;;21.74;30.96;96766.69;5057005;28;1985;-74
2022/01/10 09:59:21;;;;;;;;;;;;;;;22.39;29.73;96772.94;5055745;28;772;-75
2022/01/10 10:01:49;;;;;;;;;;;;;;;22.40;29.65;96768.84;5056869;28;859;-75
2022/01/10 10:04:15;;;;;;;;;;;;;;;22.25;30.09;96772.34;5056749;28;803;-74
2022/01/10 10:06:40;;;;;;;;;;;;;;;21.67;31.15;96770.63;5056864;28;814;-74
2022/01/10 10:09:06;;;;;;;;;;;;;;;22.27;30.11;96775.47;5056268;28;782;-74
2022/01/10 10:11:35;;;;;;;;;;;;;;;22.26;29.90;96773.91;5057432;28;903;-75
2022/01/10 10:14:02;;;;;;;;;;;;;;;22.30;29.96;96768.88;5061578;28;1390;-74
2022/01/10 10:16:29;;;;;;;;;;;;;;;21.83;30.87;96763.84;5081193;28;1901;-74
2022/01/10 10:18:55;;;;;;;;;;;;;;;22.23;30.45;96766.41;5080059;28;892;-75
2022/01/10 10:21:20;;;;;;;;;;;;;;;22.28;29.97;96771.41;5082110;28;922;-74
2022/01/10 10:23:46;;;;;;;;;;;;;;;22.28;30.19;96765.75;5079415;28;794;-75
2022/01/10 10:26:21;;;;;;;;;;;;;;;21.72;31.19;96758.69;5113447;28;873;-74
2022/01/10 10:28:49;;;;;;;;;;;;;;;22.10;30.29;96757.28;5111325;28;777;-74
2022/01/10 10:31:29;;;;;;;;;;;;;;;22.30;30.12;96757.53;5081003;28;763;-74
2022/01/10 10:33:55;;;;;;;;;;;;;;;22.23;30.29;96754.28;5097043;28;1764;-75
2022/01/10 10:36:20;;;;;;;;;;;;;;;22.18;30.10;96755.72;5098688;28;1995;-74
2022/01/10 10:38:46;;;;;;;;;;;;;;;22.12;30.44;96763.28;5096863;28;829;-75
2022/01/10 10:41:11;;;;;;;;;;;;;;;22.27;29.89;96752.81;5098939;28;1070;-75
2022/01/10 10:43:37;;;;;;;;;;;;;;;22.28;30.15;96748.75;5096674;28;762;-75
2022/01/10 10:46:04;;;;;;;;;;;;;;;21.44;31.90;96754.31;5081330;28;950;-75
2022/01/10 10:48:31;;;;;;;;;;;;;;;22.04;30.62;96756.38;5096948;28;805;-75
2022/01/10 10:50:57;;;;;;;;;;;;;;;22.07;30.22;96749.72;5098522;28;766;-74
2022/01/10 10:53:25;;;;;;;;;;;;;;;21.87;30.85;96753.13;5097002;28;845;-74
2022/01/10 10:55:50;;;;;;;;;;;;;;;22.25;29.76;96755.34;5098443;28;1979;-75
2022/01/10 10:58:16;;;;;;;;;;;;;;;22.13;30.17;96750.69;5097392;28;996;-74
2022/01/10 11:00:41;;;;;;;;;;;;;;;21.97;30.70;96757.50;5097463;28;850;-74
2022/01/10 11:03:09;;;;;;;;;;;;;;;21.61;31.27;96758.38;5096879;28;841;-74
2022/01/10 11:05:34;;;;;;;;;;;;;;;22.02;30.52;96753.22;5097370;28;784;-75
2022/01/10 11:08:00;;;;;;;;;;;;;;;22.16;29.98;96763.88;5076577;28;830;-74
2022/01/10 11:10:25;;;;;;;;;;;;;;;21.81;30.83;96760.69;5076794;28;870;-75
2022/01/10 11:12:52;;;;;;;;;;;;;;;22.05;30.25;96769.25;5076967;28;849;-75
2022/01/10 11:15:18;;;;;;;;;;;;;;;22.18;29.86;96778.38;5077197;28;1981;-74
2022/01/10 11:17:43;;;;;;;;;;;;;;;21.29;31.79;96773.94;5077089;28;840;-74
2022/01/10 11:20:09;;;;;;;;;;;;;;;21.97;30.63;96782.22;5076311;28;1074;-74
2022/01/10 11:22:35;;;;;;;;;;;;;;;22.09;30.05;96781.22;5076911;28;814;-74
2022/01/10 11:25:03;;;;;;;;;;;;;;;21.89;30.77;96790.25;5059055;28;1440;-74
2022/01/10 11:27:39;;;;;;;;;;;;;;;21.81;30.91;96781.31;5077235;28;793;-75
2022/01/10 11:30:24;;;;;;;;;;;;;;;22.28;29.97;96782.75;5076378;28;1459;-75
2022/01/10 11:32:50;;;;;;;;;;;;;;;22.17;30.11;96793.78;5076502;28;913;-75
2022/01/10 11:35:15;;;;;;;;;;;;;;;22.10;30.36;96792.09;5076539;28;1975;-75
2022/01/10 11:37:41;;;;;;;;;;;;;;;21.91;30.54;96795.41;5076932;28;818;-75
2022/01/10 11:40:07;;;;;;;;;;;;;;;22.02;30.61;96801.34;5076130;28;1035;-75
2022/01/10 11:42:37;;;;;;;;;;;;;;;22.26;30.07;96807.94;5077052;28;751;-75
2022/01/10 11:45:12;;;;;;;;;;;;;;;22.30;29.81;96802.88;5046853;28;1320;-75
2022/01/10 11:47:57;;;;;;;;;;;;;;;22.34;29.85;96814.84;5111215;28;1010;-74
2022/01/10 11:50:26;;;;;;;;;;;;;;;22.01;30.37;96819.63;5079087;28;759;-75
2022/01/10 11:52:55;;;;;;;;;;;;;;;22.31;29.65;96815.78;5109899;28;950;-75
2022/01/10 11:55:38;;;;;;;;;;;;;;;22.24;29.82;96816.13;5079163;28;1906;-75
2022/01/10 11:58:22;;;;;;;;;;;;;;;22.19;30.03;96813.94;5078288;28;897;-74
2022/01/10 12:00:48;;;;;;;;;;;;;;;22.21;30.10;96822.75;5111673;28;774;-74
2022/01/10 12:03:13;;;;;;;;;;;;;;;21.97;30.50;96807.69;5109657;28;833;-74
2022/01/10 12:05:40;;;;;;;;;;;;;;;22.33;29.61;96807.59;5078658;28;739;-75
2022/01/10 12:08:05;;;;;;;;;;;;;;;22.29;29.92;96812.66;5056103;28;938;-75
2022/01/10 12:10:31;;;;;;;;;;;;;;;22.17;30.15;96810.78;5040707;28;947;-75
2022/01/10 12:13:05;;;;;;;;;;;;;;;21.95;30.56;96821.53;5057420;28;926;-75
2022/01/10 12:15:33;;;;;;;;;;;;;;;21.72;31.07;96825.84;5018136;28;1902;-75
2022/01/10 12:17:59;;;;;;;;;;;;;;;22.22;29.86;96824.31;5017414;28;847;-75
2022/01/10 12:20:24;;;;;;;;;;;;;;;22.38;29.56;96842.19;5018563;28;989;-75
2022/01/10 12:22:53;;;;;;;;;;;;;;;22.24;30.03;96835.97;5017810;28;916;-75
2022/01/10 12:25:19;;;;;;;;;;;;;;;21.64;31.13;96841.56;5017715;28;1009;-75
2022/01/10 12:27:44;;;;;;;;;;;;;;;22.28;29.81;96839.41;5017769;28;830;-75
2022/01/10 12:30:10;;;;;;;;;;;;;;;22.31;29.53;96844.13;5016716;28;788;-75
2022/01/10 12:32:35;;;;;;;;;;;;;;;22.12;29.85;96842.59;5018300;28;862;-75
2022/01/10 12:35:01;;;;;;;;;;;;;;;21.71;31.14;96842.03;5016500;28;1910;-75
2022/01/10 12:37:27;;;;;;;;;;;;;;;22.12;30.12;96839.75;5017809;28;1009;-75
2022/01/10 12:39:52;;;;;;;;;;;;;;;22.22;29.75;96835.63;5052489;28;1395;-75
2022/01/10 12:42:19;;;;;;;;;;;;;;;22.24;29.74;96838.81;5058160;28;877;-75
2022/01/10 12:44:44;;;;;;;;;;;;;;;21.71;30.56;96839.22;5056236;28;805;-76
2022/01/10 12:47:10;;;;;;;;;;;;;;;21.54;31.14;96854.94;5074186;28;942;-75
2022/01/10 12:49:35;;;;;;;;;;;;;;;22.21;30.12;96851.06;5093422;28;745;-75
2022/01/10 12:52:01;;;;;;;;;;;;;;;22.30;29.41;96853.09;5078621;28;937;-75
2022/01/10 12:54:27;;;;;;;;;;;;;;;22.03;30.12;96853.94;5076468;28;790;-75
2022/01/10 12:56:52;;;;;;;;;;;;;;;22.01;30.44;96860.06;5080035;28;1914;-75
2022/01/10 12:59:24;;;;;;;;;;;;;;;22.28;29.65;96856.41;5111106;28;817;-75
2022/01/10 13:01:49;;;;;;;;;;;;;;;22.06;30.02;96858.63;5080889;28;799;-75
2022/01/10 13:04:18;;;;;;;;;;;;;;;22.06;30.39;96867.13;5093464;28;1050;-75
2022/01/10 13:06:45;;;;;;;;;;;;;;;22.09;30.04;96877.53;5111741;28;808;-76